Time;durP1;ratioP1;P1;durP2;ratioP2;P2;SDS_P1;SDS_P2;PMS_P1;PMS_P2;Temp;Humidity;BMP_temperature;BMP_pressure;BME280_temperature;BME280_humidity;BME280_pressure;Samples;Min_cycle;Max_cycle;Signal;HPM_P1;HPM_P2
2021/11/05 00:00:46;;;;;;;15.63;9.90;;;7.40;99.90;;;;;;6148511;23;20152;-78
2021/11/05 00:03:13;;;;;;;15.67;9.23;;;7.40;99.90;;;;;;6148291;23;20207;-79
2021/11/05 00:05:39;;;;;;;14.63;9.20;;;7.40;99.90;;;;;;6148695;23;20167;-79
2021/11/05 00:08:07;;;;;;;12.63;8.73;;;7.40;99.90;;;;;;6124140;23;20911;-79
2021/11/05 00:10:35;;;;;;;12.53;8.90;;;7.30;99.90;;;;;;6124240;23;20164;-79
2021/11/05 00:13:01;;;;;;;13.90;9.83;;;7.40;99.90;;;;;;6149980;23;20163;-78
2021/11/05 00:15:28;;;;;;;13.17;9.23;;;7.40;99.90;;;;;;6124095;23;20163;-79
2021/11/05 00:17:54;;;;;;;14.03;8.80;;;7.40;99.90;;;;;;6150309;23;20250;-79
2021/11/05 00:20:20;;;;;;;13.03;8.77;;;7.30;99.90;;;;;;6150313;23;20258;-79
2021/11/05 00:22:45;;;;;;;14.13;9.20;;;7.40;99.90;;;;;;6150127;23;20777;-80
2021/11/05 00:25:11;;;;;;;13.47;8.93;;;7.40;99.90;;;;;;6150907;23;20508;-78
2021/11/05 00:27:38;;;;;;;12.03;8.80;;;7.40;99.90;;;;;;6150166;23;20176;-79
2021/11/05 00:30:05;;;;;;;12.13;8.53;;;7.40;99.90;;;;;;6150075;23;20156;-79
2021/11/05 00:32:31;;;;;;;12.50;8.40;;;7.30;99.90;;;;;;6124740;23;20163;-78
2021/11/05 00:34:56;;;;;;;12.53;9.00;;;7.30;99.90;;;;;;6152235;23;20164;-80
2021/11/05 00:37:22;;;;;;;14.00;9.03;;;7.40;99.90;;;;;;6154662;23;20184;-77
2021/11/05 00:39:48;;;;;;;14.27;10.03;;;7.30;99.90;;;;;;6154972;23;20194;-77
2021/11/05 00:42:13;;;;;;;13.73;9.43;;;7.40;99.90;;;;;;6150851;23;20155;-78
2021/11/05 00:44:39;;;;;;;14.57;10.37;;;7.40;99.90;;;;;;6124115;23;20168;-80
2021/11/05 00:47:04;;;;;;;16.13;9.97;;;7.40;99.90;;;;;;6150159;23;20231;-78
2021/11/05 00:49:30;;;;;;;14.20;10.27;;;7.30;99.90;;;;;;6123490;23;20183;-78
2021/11/05 00:51:56;;;;;;;14.57;9.73;;;7.30;99.90;;;;;;6149877;23;20152;-78
2021/11/05 00:54:21;;;;;;;14.23;9.93;;;7.40;99.90;;;;;;6150381;23;20601;-75
2021/11/05 00:56:47;;;;;;;15.70;10.83;;;7.40;99.90;;;;;;6151153;23;20156;-75
2021/11/05 00:59:13;;;;;;;14.93;10.70;;;7.40;99.90;;;;;;6149492;23;20186;-79
2021/11/05 01:01:38;;;;;;;14.30;10.70;;;7.40;99.90;;;;;;6122970;23;20178;-79
2021/11/05 01:04:04;;;;;;;15.30;11.23;;;7.30;99.90;;;;;;6149831;23;20159;-78
2021/11/05 01:06:30;;;;;;;15.77;10.90;;;7.40;99.90;;;;;;6149814;23;20159;-78
2021/11/05 01:08:56;;;;;;;16.07;11.17;;;7.40;99.90;;;;;;6123461;23;20179;-79
2021/11/05 01:11:21;;;;;;;15.33;11.67;;;7.40;99.90;;;;;;6149475;23;20169;-79
2021/11/05 01:13:47;;;;;;;13.70;10.50;;;7.50;99.90;;;;;;6123464;23;20164;-78
2021/11/05 01:16:12;;;;;;;16.70;11.23;;;7.40;99.90;;;;;;6149631;23;20186;-79
2021/11/05 01:18:38;;;;;;;17.30;11.57;;;7.30;99.90;;;;;;6148956;23;20214;-78
2021/11/05 01:21:04;;;;;;;17.93;11.87;;;7.30;99.90;;;;;;6149291;23;20160;-78
2021/11/05 01:23:29;;;;;;;16.40;12.17;;;7.40;99.90;;;;;;6149423;23;20147;-77
2021/11/05 01:25:55;;;;;;;19.30;11.97;;;7.30;99.90;;;;;;6148786;23;20151;-79
2021/11/05 01:28:21;;;;;;;19.23;12.83;;;7.40;99.90;;;;;;6122138;23;20519;-78
2021/11/05 01:30:46;;;;;;;17.20;11.50;;;7.40;99.90;;;;;;6147792;23;20155;-79
2021/11/05 01:33:12;;;;;;;21.53;12.97;;;7.30;99.90;;;;;;6120886;23;20159;-78
2021/11/05 01:35:40;;;;;;;17.40;12.17;;;7.40;99.90;;;;;;6147409;23;20223;-79
2021/11/05 01:38:08;;;;;;;17.83;12.67;;;7.40;99.90;;;;;;6147378;23;20171;-78
2021/11/05 01:40:35;;;;;;;20.80;13.63;;;7.40;99.90;;;;;;6121364;23;20187;-78
2021/11/05 01:43:01;;;;;;;18.37;13.03;;;7.40;99.90;;;;;;6147739;23;20243;-78
2021/11/05 01:45:31;;;;;;;19.30;12.93;;;7.50;99.90;;;;;;6147666;23;20227;-78
2021/11/05 01:47:57;;;;;;;20.00;13.70;;;7.50;99.90;;;;;;6122329;23;20180;-77
2021/11/05 01:50:23;;;;;;;22.73;12.97;;;7.40;99.90;;;;;;6122141;23;20601;-78
2021/11/05 01:52:50;;;;;;;22.47;13.93;;;7.40;99.90;;;;;;6148338;23;20152;-78
2021/11/05 01:55:16;;;;;;;20.23;13.77;;;7.40;99.90;;;;;;6121996;23;20336;-79
2021/11/05 01:57:43;;;;;;;19.80;13.57;;;7.50;99.90;;;;;;6122619;23;20679;-79
2021/11/05 02:00:11;;;;;;;22.20;14.37;;;7.50;99.90;;;;;;6121902;23;20256;-79
2021/11/05 02:02:37;;;;;;;20.40;13.43;;;7.50;99.90;;;;;;6148056;23;20163;-79
2021/11/05 02:05:04;;;;;;;21.00;13.83;;;7.50;99.90;;;;;;6121937;23;20159;-78
2021/11/05 02:07:34;;;;;;;24.03;14.93;;;7.50;99.90;;;;;;6147924;23;20588;-79
2021/11/05 02:10:04;;;;;;;23.17;14.83;;;7.40;99.90;;;;;;6148609;23;20217;-76
2021/11/05 02:12:30;;;;;;;22.90;13.80;;;7.50;99.90;;;;;;6164409;23;20136;-75
2021/11/05 02:14:58;;;;;;;25.73;15.47;;;7.50;99.90;;;;;;6156909;23;20995;-79
2021/11/05 02:17:24;;;;;;;21.80;14.20;;;7.40;99.90;;;;;;6150236;23;20604;-79
2021/11/05 02:19:51;;;;;;;23.93;14.97;;;7.40;99.90;;;;;;6148563;23;20171;-79
2021/11/05 02:22:17;;;;;;;22.90;15.50;;;7.40;99.90;;;;;;6121864;23;20168;-79
2021/11/05 02:24:42;;;;;;;22.13;14.87;;;7.40;99.90;;;;;;6148157;23;20990;-79
2021/11/05 02:27:09;;;;;;;23.13;14.73;;;7.40;99.90;;;;;;6122128;23;21053;-78
2021/11/05 02:29:35;;;;;;;24.00;14.87;;;7.40;99.90;;;;;;6122484;23;20258;-78
2021/11/05 02:32:02;;;;;;;24.30;15.50;;;7.50;99.90;;;;;;6122099;23;20805;-79
2021/11/05 02:34:29;;;;;;;22.33;14.97;;;7.50;99.90;;;;;;6148632;23;20163;-80
2021/11/05 02:36:55;;;;;;;23.13;14.30;;;7.50;99.90;;;;;;6148948;23;20239;-78
2021/11/05 02:39:21;;;;;;;20.03;13.63;;;7.60;99.90;;;;;;6148351;23;20966;-78
2021/11/05 02:41:51;;;;;;;22.33;14.63;;;7.50;99.90;;;;;;6122311;23;20860;-78
2021/11/05 02:44:17;;;;;;;24.27;15.17;;;7.50;99.90;;;;;;6122782;23;20156;-78
2021/11/05 02:46:42;;;;;;;21.23;13.80;;;7.50;99.90;;;;;;6148609;23;20152;-79
2021/11/05 02:49:10;;;;;;;22.20;13.90;;;7.40;99.90;;;;;;6148750;23;20607;-78
2021/11/05 02:51:38;;;;;;;21.63;14.43;;;7.50;99.90;;;;;;6122265;23;20174;-78
2021/11/05 02:54:05;;;;;;;23.33;14.70;;;7.50;99.90;;;;;;6148240;23;20235;-78
2021/11/05 02:56:31;;;;;;;22.50;13.50;;;7.40;99.90;;;;;;6121531;23;20554;-79
2021/11/05 02:58:58;;;;;;;23.27;15.37;;;7.40;99.90;;;;;;6147970;23;20191;-78
2021/11/05 03:01:24;;;;;;;23.47;14.60;;;7.40;99.90;;;;;;6121394;23;20160;-78
2021/11/05 03:03:49;;;;;;;21.73;14.00;;;7.50;99.90;;;;;;6148172;23;20245;-79
2021/11/05 03:06:15;;;;;;;22.90;14.07;;;7.50;99.90;;;;;;6147645;23;20610;-80
2021/11/05 03:08:41;;;;;;;21.57;14.63;;;7.50;99.90;;;;;;6147622;23;20230;-78
2021/11/05 03:11:11;;;;;;;23.30;14.90;;;7.50;99.90;;;;;;6121530;23;20607;-78
2021/11/05 03:13:38;;;;;;;23.60;14.90;;;7.50;99.90;;;;;;6148293;23;20226;-77
2021/11/05 03:16:04;;;;;;;26.47;15.10;;;7.40;99.90;;;;;;6147393;23;20158;-79
2021/11/05 03:18:34;;;;;;;23.10;14.27;;;7.50;99.90;;;;;;6121372;23;20195;-78
2021/11/05 03:20:59;;;;;;;22.80;13.90;;;7.50;99.90;;;;;;6147837;23;20583;-79
2021/11/05 03:23:25;;;;;;;23.60;14.87;;;7.40;99.90;;;;;;6147606;23;20190;-79
2021/11/05 03:25:51;;;;;;;23.83;14.90;;;7.50;99.90;;;;;;6120934;23;20589;-77
2021/11/05 03:28:16;;;;;;;22.70;13.97;;;7.50;99.90;;;;;;6146719;23;20237;-78
2021/11/05 03:30:42;;;;;;;23.83;14.17;;;7.50;99.90;;;;;;6146908;23;20155;-78
2021/11/05 03:33:07;;;;;;;23.57;15.37;;;7.50;99.90;;;;;;6121682;23;20166;-79
2021/11/05 03:35:33;;;;;;;22.23;14.43;;;7.50;99.90;;;;;;6148982;23;20217;-80
2021/11/05 03:37:59;;;;;;;23.47;15.60;;;7.50;99.90;;;;;;6147322;23;20523;-78
2021/11/05 03:40:24;;;;;;;21.27;14.67;;;7.40;99.90;;;;;;6121046;23;20187;-79
2021/11/05 03:42:52;;;;;;;26.03;15.93;;;7.40;99.90;;;;;;6149134;23;20619;-79
2021/11/05 03:45:19;;;;;;;27.93;15.07;;;7.50;99.90;;;;;;6123381;23;20167;-78
2021/11/05 03:47:45;;;;;;;20.47;14.50;;;7.50;99.90;;;;;;6150334;23;20175;-78
2021/11/05 03:50:11;;;;;;;23.67;15.50;;;7.40;99.90;;;;;;6149946;23;20606;-78
2021/11/05 03:52:37;;;;;;;23.73;14.10;;;7.40;99.90;;;;;;6123606;23;20278;-78
2021/11/05 03:55:04;;;;;;;25.80;15.67;;;7.50;99.90;;;;;;6150091;23;20163;-78
2021/11/05 03:57:29;;;;;;;25.77;15.53;;;7.50;99.90;;;;;;6149691;23;20163;-79
2021/11/05 03:59:55;;;;;;;24.23;15.97;;;7.60;99.90;;;;;;6149834;23;20183;-79
2021/11/05 04:02:21;;;;;;;24.93;15.20;;;7.50;99.90;;;;;;6148426;23;20152;-78
2021/11/05 04:04:47;;;;;;;22.83;15.10;;;7.50;99.90;;;;;;6123373;23;20704;-78
2021/11/05 04:07:12;;;;;;;23.87;15.00;;;7.40;99.90;;;;;;6150083;23;20183;-78
2021/11/05 04:09:38;;;;;;;25.13;15.83;;;7.40;99.90;;;;;;6150518;23;20278;-79
2021/11/05 04:12:04;;;;;;;24.27;15.20;;;7.50;99.90;;;;;;6151452;23;20205;-77
2021/11/05 04:14:29;;;;;;;23.67;15.10;;;7.50;99.90;;;;;;6153687;23;20160;-76
2021/11/05 04:16:55;;;;;;;26.03;14.73;;;7.50;99.90;;;;;;6154238;23;20187;-76
2021/11/05 04:19:21;;;;;;;24.27;15.03;;;7.50;99.90;;;;;;6123671;23;20203;-77
2021/11/05 04:21:47;;;;;;;23.67;14.13;;;7.50;99.90;;;;;;6123232;23;20654;-79
2021/11/05 04:24:13;;;;;;;22.17;13.73;;;7.50;99.90;;;;;;6150503;23;20206;-79
2021/11/05 04:26:38;;;;;;;22.13;14.30;;;7.40;99.90;;;;;;6122876;23;20175;-78
2021/11/05 04:29:05;;;;;;;21.80;13.93;;;7.30;99.90;;;;;;6122711;23;20184;-79
2021/11/05 04:31:31;;;;;;;22.83;14.27;;;7.40;99.90;;;;;;6147608;23;20239;-79
2021/11/05 04:33:56;;;;;;;23.57;14.07;;;7.40;99.90;;;;;;6149723;23;20202;-79
2021/11/05 04:36:22;;;;;;;25.27;14.23;;;7.40;99.90;;;;;;6149269;23;20163;-79
2021/11/05 04:38:49;;;;;;;22.83;13.17;;;7.30;99.90;;;;;;6149618;23;20183;-79
2021/11/05 04:41:15;;;;;;;21.37;13.77;;;7.30;99.90;;;;;;6149236;23;20155;-80
2021/11/05 04:43:40;;;;;;;23.23;13.53;;;7.30;99.90;;;;;;6149385;23;20148;-79
2021/11/05 04:46:07;;;;;;;22.63;14.53;;;7.30;99.90;;;;;;6150071;23;20164;-79
2021/11/05 04:48:32;;;;;;;22.60;13.47;;;7.30;99.90;;;;;;6123755;23;20651;-78
2021/11/05 04:50:58;;;;;;;23.03;13.63;;;7.30;99.90;;;;;;6150511;23;20156;-79
2021/11/05 04:53:24;;;;;;;24.87;14.00;;;7.30;99.90;;;;;;6149247;23;20167;-79
2021/11/05 04:55:49;;;;;;;20.43;13.00;;;7.40;99.90;;;;;;6149945;23;20162;-78
2021/11/05 04:58:15;;;;;;;19.70;12.67;;;7.30;99.90;;;;;;6124022;23;20179;-79
2021/11/05 05:00:41;;;;;;;23.87;13.60;;;7.30;99.90;;;;;;6150394;23;20182;-79
2021/11/05 05:03:07;;;;;;;25.00;13.83;;;7.30;99.90;;;;;;6149394;23;20160;-79
2021/11/05 05:05:33;;;;;;;21.10;12.87;;;7.30;99.90;;;;;;6150531;23;20152;-79
2021/11/05 05:07:58;;;;;;;19.80;13.00;;;7.30;99.90;;;;;;6123917;23;20183;-80
2021/11/05 05:10:25;;;;;;;23.23;13.10;;;7.30;99.90;;;;;;6149895;23;20230;-79
2021/11/05 05:12:51;;;;;;;25.93;15.10;;;7.30;99.90;;;;;;6149489;23;20202;-78
2021/11/05 05:15:17;;;;;;;20.63;13.70;;;7.30;99.90;;;;;;6149380;23;20164;-78
2021/11/05 05:17:44;;;;;;;21.90;13.57;;;7.30;99.90;;;;;;6149765;23;20837;-80
2021/11/05 05:20:12;;;;;;;23.80;14.83;;;7.40;99.90;;;;;;6147105;23;20167;-79
2021/11/05 05:22:39;;;;;;;26.80;15.87;;;7.30;99.90;;;;;;6147012;23;20162;-78
2021/11/05 05:25:07;;;;;;;29.87;16.10;;;7.30;99.90;;;;;;6147063;23;20156;-79
2021/11/05 05:27:33;;;;;;;26.13;15.70;;;7.30;99.90;;;;;;6120496;23;20187;-78
2021/11/05 05:29:59;;;;;;;27.37;16.00;;;7.40;99.90;;;;;;6146701;23;20496;-79
2021/11/05 05:32:24;;;;;;;29.60;16.00;;;7.30;99.90;;;;;;6147610;23;20151;-79
2021/11/05 05:34:50;;;;;;;26.93;15.83;;;7.30;99.90;;;;;;6146734;23;20152;-79
2021/11/05 05:37:16;;;;;;;24.67;15.63;;;7.30;99.90;;;;;;6146941;23;20160;-79
2021/11/05 05:39:42;;;;;;;28.40;16.07;;;7.30;99.90;;;;;;6147141;23;20179;-79
2021/11/05 05:42:07;;;;;;;25.03;15.57;;;7.40;99.90;;;;;;6120179;23;20174;-80
2021/11/05 05:44:34;;;;;;;28.93;15.03;;;7.40;99.90;;;;;;6120599;23;20171;-78
2021/11/05 05:47:00;;;;;;;27.00;14.90;;;7.40;99.90;;;;;;6146414;23;20155;-78
2021/11/05 05:49:26;;;;;;;23.57;15.03;;;7.30;99.90;;;;;;6119906;23;20179;-79
2021/11/05 05:51:52;;;;;;;25.57;14.27;;;7.30;99.90;;;;;;6145595;23;20195;-79
2021/11/05 05:54:18;;;;;;;25.77;14.27;;;7.30;99.90;;;;;;6146599;23;20155;-77
2021/11/05 05:56:43;;;;;;;23.77;14.30;;;7.30;99.90;;;;;;6120118;23;20553;-79
2021/11/05 05:59:09;;;;;;;22.73;13.00;;;7.30;99.90;;;;;;6146018;23;20231;-79
2021/11/05 06:01:35;;;;;;;23.83;14.43;;;7.20;99.90;;;;;;6146072;23;20176;-79
2021/11/05 06:04:01;;;;;;;27.60;15.67;;;7.30;99.90;;;;;;6145722;23;20156;-79
2021/11/05 06:06:28;;;;;;;21.97;13.53;;;7.30;99.90;;;;;;6147290;23;20179;-78
2021/11/05 06:08:54;;;;;;;23.27;13.33;;;7.30;99.90;;;;;;6146654;23;20172;-79
2021/11/05 06:11:20;;;;;;;21.40;12.70;;;7.20;99.90;;;;;;6146302;23;20156;-80
2021/11/05 06:13:45;;;;;;;23.60;13.63;;;7.20;99.90;;;;;;6146106;23;20166;-79
2021/11/05 06:16:11;;;;;;;24.27;13.97;;;7.20;99.90;;;;;;6146923;23;20246;-78
2021/11/05 06:18:37;;;;;;;21.90;13.03;;;7.10;99.90;;;;;;6148255;23;20258;-79
2021/11/05 06:21:03;;;;;;;23.77;13.93;;;7.20;99.90;;;;;;6148551;23;20600;-79
2021/11/05 06:23:29;;;;;;;25.50;14.27;;;7.20;99.90;;;;;;6119246;23;20609;-79
2021/11/05 06:25:55;;;;;;;25.50;13.73;;;7.20;99.90;;;;;;6146089;23;20152;-78
2021/11/05 06:28:21;;;;;;;22.77;14.00;;;7.30;99.90;;;;;;6145977;23;20171;-79
2021/11/05 06:30:46;;;;;;;22.93;14.50;;;7.30;99.90;;;;;;6142757;23;20221;-79
2021/11/05 06:33:12;;;;;;;24.80;14.03;;;7.20;99.90;;;;;;6142266;23;20147;-79
2021/11/05 06:35:38;;;;;;;27.00;13.50;;;7.20;99.90;;;;;;6118117;23;20609;-79
2021/11/05 06:38:03;;;;;;;25.60;13.30;;;7.30;99.90;;;;;;6119251;23;20183;-79
2021/11/05 06:40:29;;;;;;;25.47;13.23;;;7.30;99.90;;;;;;6118817;23;20640;-79
2021/11/05 06:42:54;;;;;;;26.97;13.27;;;7.30;99.90;;;;;;6145773;23;20401;-79
2021/11/05 06:45:20;;;;;;;21.83;12.83;;;7.20;99.90;;;;;;6146629;23;20214;-78
2021/11/05 06:47:46;;;;;;;21.20;12.77;;;7.20;99.90;;;;;;6146061;23;20574;-79
2021/11/05 06:50:12;;;;;;;23.23;12.50;;;7.20;99.90;;;;;;6145939;23;20205;-78
2021/11/05 06:52:38;;;;;;;21.10;12.73;;;7.30;99.90;;;;;;6145908;23;20174;-79
2021/11/05 06:55:05;;;;;;;21.07;13.07;;;7.30;99.90;;;;;;6145830;23;20151;-79
2021/11/05 06:57:31;;;;;;;21.13;12.63;;;7.30;99.90;;;;;;6120478;23;20319;-78
2021/11/05 06:59:58;;;;;;;22.00;13.13;;;7.20;99.90;;;;;;6146674;23;20219;-80
2021/11/05 07:02:23;;;;;;;24.37;13.27;;;7.30;99.90;;;;;;6119398;23;20166;-79
2021/11/05 07:04:49;;;;;;;22.43;12.27;;;7.30;99.90;;;;;;6145138;23;20156;-79
2021/11/05 07:07:15;;;;;;;25.73;13.77;;;7.30;99.90;;;;;;6119906;23;20527;-80
2021/11/05 07:09:41;;;;;;;27.90;14.93;;;7.40;99.90;;;;;;6145801;23;20179;-79
2021/11/05 07:12:07;;;;;;;23.43;13.13;;;7.40;99.90;;;;;;6119128;23;20400;-79
2021/11/05 07:14:33;;;;;;;21.37;12.10;;;7.50;99.90;;;;;;6145448;23;20512;-79
2021/11/05 07:16:59;;;;;;;21.73;12.33;;;7.50;99.90;;;;;;6145746;23;20159;-80
2021/11/05 07:19:25;;;;;;;20.57;12.17;;;7.40;99.90;;;;;;6119609;23;20206;-78
2021/11/05 07:21:58;;;;;;;21.53;12.80;;;7.50;99.90;;;;;;6146060;23;20615;-79
2021/11/05 07:24:28;;;;;;;20.67;11.87;;;7.50;99.90;;;;;;6146679;23;20593;-79
2021/11/05 07:26:54;;;;;;;20.97;12.73;;;7.50;99.90;;;;;;6119895;23;20508;-78
2021/11/05 07:29:26;;;;;;;18.77;12.10;;;7.50;99.90;;;;;;6146196;23;20180;-80
2021/11/05 07:31:58;;;;;;;18.17;11.37;;;7.50;99.90;;;;;;6146051;23;20207;-79
2021/11/05 07:34:24;;;;;;;19.87;11.73;;;7.50;99.90;;;;;;6146961;23;20191;-78
2021/11/05 07:36:50;;;;;;;21.43;11.90;;;7.60;99.90;;;;;;6119426;23;20163;-78
2021/11/05 07:39:16;;;;;;;17.93;11.43;;;7.70;99.90;;;;;;6119408;23;20194;-78
2021/11/05 07:41:41;;;;;;;19.67;11.73;;;7.70;99.90;;;;;;6145743;23;20210;-78
2021/11/05 07:44:07;;;;;;;19.37;11.67;;;7.70;99.90;;;;;;6146097;23;20682;-77
2021/11/05 07:46:33;;;;;;;20.90;12.20;;;7.70;99.90;;;;;;6145837;23;20148;-77
2021/11/05 07:48:59;;;;;;;19.67;11.90;;;7.80;99.90;;;;;;6144848;23;20295;-77
2021/11/05 07:51:24;;;;;;;23.50;11.40;;;7.90;99.90;;;;;;6143822;23;20501;-77
2021/11/05 07:53:50;;;;;;;16.53;10.87;;;7.90;99.90;;;;;;6146344;23;20291;-79
2021/11/05 07:56:16;;;;;;;18.10;11.17;;;8.00;99.90;;;;;;6146247;23;20187;-78
2021/11/05 07:58:41;;;;;;;16.43;10.13;;;8.00;99.90;;;;;;6146989;23;20175;-79
2021/11/05 08:01:07;;;;;;;16.33;10.73;;;8.00;99.90;;;;;;6146071;23;20454;-78
2021/11/05 08:03:33;;;;;;;18.00;11.03;;;8.10;99.90;;;;;;6145976;23;20671;-79
2021/11/05 08:05:58;;;;;;;15.47;10.40;;;8.10;99.90;;;;;;6146570;23;20190;-79
2021/11/05 08:08:24;;;;;;;16.87;10.40;;;8.20;99.90;;;;;;6145897;23;20222;-78
2021/11/05 08:10:50;;;;;;;18.00;10.33;;;8.20;99.90;;;;;;6121677;23;20175;-79
2021/11/05 08:13:15;;;;;;;22.53;11.37;;;8.20;99.90;;;;;;6145911;23;20159;-79
2021/11/05 08:15:41;;;;;;;21.07;10.53;;;8.30;99.90;;;;;;6120668;23;20698;-79
2021/11/05 08:18:07;;;;;;;19.70;11.33;;;8.30;99.90;;;;;;6145067;23;20517;-79
2021/11/05 08:20:33;;;;;;;17.70;10.80;;;8.30;99.90;;;;;;6146103;23;20203;-80
2021/11/05 08:22:59;;;;;;;19.37;11.00;;;8.20;99.90;;;;;;6146071;23;20156;-79
2021/11/05 08:25:27;;;;;;;20.10;10.87;;;8.20;99.90;;;;;;6144470;23;20211;-78
2021/11/05 08:27:53;;;;;;;15.63;9.97;;;8.20;99.90;;;;;;6146159;23;20199;-78
2021/11/05 08:30:22;;;;;;;20.00;10.53;;;8.10;99.90;;;;;;6147099;23;20567;-79
2021/11/05 08:32:50;;;;;;;17.87;10.20;;;8.20;99.90;;;;;;6146705;23;20156;-79
2021/11/05 08:35:18;;;;;;;17.63;10.60;;;8.20;99.90;;;;;;6146715;23;20171;-79
2021/11/05 08:37:44;;;;;;;17.37;9.97;;;8.20;99.90;;;;;;6147115;23;20176;-79
2021/11/05 08:40:11;;;;;;;15.90;10.10;;;8.30;99.90;;;;;;6146857;23;20179;-79
2021/11/05 08:42:37;;;;;;;15.80;10.13;;;8.30;99.90;;;;;;6147290;23;20162;-79
2021/11/05 08:45:06;;;;;;;16.03;9.80;;;8.30;99.90;;;;;;6147582;23;20648;-78
2021/11/05 08:47:32;;;;;;;17.23;9.97;;;8.40;99.90;;;;;;6147713;23;20156;-79
2021/11/05 08:49:58;;;;;;;14.70;9.47;;;8.30;99.90;;;;;;6120794;23;20178;-79
2021/11/05 08:52:23;;;;;;;15.43;9.83;;;8.30;99.90;;;;;;6146650;23;20655;-78
2021/11/05 08:54:49;;;;;;;15.60;9.73;;;8.20;99.90;;;;;;6120219;23;20163;-79
2021/11/05 08:57:15;;;;;;;18.20;9.67;;;8.20;99.90;;;;;;6147207;23;20254;-78
2021/11/05 08:59:40;;;;;;;16.30;9.30;;;8.20;99.90;;;;;;6147015;23;20501;-79
2021/11/05 09:02:06;;;;;;;17.50;10.10;;;8.30;99.90;;;;;;6147194;23;20151;-78
2021/11/05 09:04:32;;;;;;;17.50;10.23;;;8.30;99.90;;;;;;6120454;23;20218;-79
2021/11/05 09:06:57;;;;;;;14.87;9.83;;;8.30;99.90;;;;;;6147649;23;20160;-79
2021/11/05 09:09:23;;;;;;;17.27;9.43;;;8.40;99.90;;;;;;6147339;23;20182;-79
2021/11/05 09:11:52;;;;;;;15.03;9.43;;;8.40;99.90;;;;;;6147201;23;20368;-79
2021/11/05 09:14:19;;;;;;;15.13;9.07;;;8.40;99.90;;;;;;6121269;23;20613;-79
2021/11/05 09:16:45;;;;;;;16.93;9.90;;;8.50;99.90;;;;;;6121043;23;20224;-78
2021/11/05 09:19:11;;;;;;;17.90;10.30;;;8.40;99.90;;;;;;6119896;23;20206;-78
2021/11/05 09:21:37;;;;;;;15.63;9.57;;;8.40;99.90;;;;;;6120587;23;20616;-79
2021/11/05 09:24:04;;;;;;;14.90;8.67;;;8.40;99.90;;;;;;6147031;23;20497;-79
2021/11/05 09:26:30;;;;;;;13.80;8.80;;;8.30;99.90;;;;;;6120534;23;20218;-78
2021/11/05 09:28:57;;;;;;;15.87;9.60;;;8.30;99.90;;;;;;6146572;23;20184;-79
2021/11/05 09:31:22;;;;;;;13.83;8.83;;;8.20;99.90;;;;;;6145583;23;20187;-78
2021/11/05 09:33:49;;;;;;;13.53;8.40;;;8.30;99.90;;;;;;6146469;23;20158;-78
2021/11/05 09:36:16;;;;;;;14.47;8.47;;;8.40;99.90;;;;;;6146484;23;20167;-78
2021/11/05 09:38:42;;;;;;;16.23;9.20;;;8.40;99.90;;;;;;6119487;23;20689;-79
2021/11/05 09:41:08;;;;;;;15.60;8.57;;;8.50;99.90;;;;;;6146419;23;20510;-79
2021/11/05 09:43:34;;;;;;;15.87;8.90;;;8.50;99.90;;;;;;6146657;23;20156;-79
2021/11/05 09:45:59;;;;;;;12.93;8.43;;;8.50;99.90;;;;;;6121540;23;20155;-79
2021/11/05 09:48:26;;;;;;;17.27;10.17;;;8.60;99.90;;;;;;6146833;23;20175;-78
2021/11/05 09:50:52;;;;;;;15.67;9.60;;;8.60;99.90;;;;;;6147336;23;20156;-78
2021/11/05 09:53:17;;;;;;;13.70;9.20;;;8.70;99.90;;;;;;6146729;23;20379;-79
2021/11/05 09:55:46;;;;;;;13.53;9.27;;;8.60;99.90;;;;;;6147067;23;20160;-79
2021/11/05 09:58:12;;;;;;;14.73;9.03;;;8.60;99.90;;;;;;6120979;23;20242;-78
2021/11/05 10:00:40;;;;;;;19.00;10.13;;;8.60;99.90;;;;;;6147752;23;20238;-79
2021/11/05 10:03:06;;;;;;;14.73;9.10;;;8.80;99.90;;;;;;6146265;23;20152;-80
2021/11/05 10:05:34;;;;;;;13.70;9.00;;;8.80;99.90;;;;;;6147556;23;20440;-79
2021/11/05 10:08:00;;;;;;;21.47;9.90;;;8.90;99.90;;;;;;6146380;23;20182;-79
2021/11/05 10:10:38;;;;;;;17.13;9.73;;;8.90;99.90;;;;;;6145612;23;20227;-79
2021/11/05 10:13:07;;;;;;;14.30;9.07;;;8.90;99.90;;;;;;6119720;23;20163;-78
2021/11/05 10:15:46;;;;;;;16.40;10.10;;;9.00;99.90;;;;;;6144984;23;20175;-79
2021/11/05 10:18:18;;;;;;;15.50;9.37;;;9.00;99.90;;;;;;6144946;23;20198;-78
2021/11/05 10:20:46;;;;;;;15.53;8.63;;;9.10;99.90;;;;;;6145295;23;20188;-79
2021/11/05 10:23:13;;;;;;;12.87;8.53;;;9.20;99.90;;;;;;6145424;23;20190;-78
2021/11/05 10:25:49;;;;;;;12.57;7.90;;;9.20;99.90;;;;;;6145360;23;20186;-77
2021/11/05 10:28:25;;;;;;;12.03;6.97;;;9.20;99.90;;;;;;6118345;23;20253;-78
2021/11/05 10:31:00;;;;;;;12.53;6.80;;;9.20;99.90;;;;;;6144874;23;20154;-79
2021/11/05 10:33:40;;;;;;;11.77;6.10;;;9.10;99.90;;;;;;6118719;23;20416;-78
2021/11/05 10:36:11;;;;;;;10.53;6.53;;;9.10;99.90;;;;;;6144814;23;20176;-77
2021/11/05 10:38:49;;;;;;;8.83;6.50;;;9.10;99.90;;;;;;6144678;23;20186;-77
2021/11/05 10:41:21;;;;;;;12.17;7.00;;;9.20;99.90;;;;;;6118054;23;20588;-78
2021/11/05 10:43:50;;;;;;;12.57;7.13;;;9.20;99.90;;;;;;6144582;23;20196;-78
2021/11/05 10:46:31;;;;;;;13.07;7.37;;;9.20;99.90;;;;;;6144767;23;20152;-78
2021/11/05 10:49:20;;;;;;;14.03;6.67;;;9.20;99.90;;;;;;6144677;23;20172;-78
2021/11/05 10:51:46;;;;;;;10.57;6.53;;;9.20;99.90;;;;;;6144046;23;20140;-78
2021/11/05 10:54:12;;;;;;;10.83;6.53;;;9.20;99.90;;;;;;6117960;23;20540;-78
2021/11/05 10:56:39;;;;;;;10.33;6.53;;;9.10;99.90;;;;;;6144349;23;20449;-78
2021/11/05 10:59:08;;;;;;;10.73;6.73;;;9.10;99.90;;;;;;6144539;23;20238;-78
2021/11/05 11:01:42;;;;;;;10.57;6.90;;;9.20;99.90;;;;;;6117701;23;20164;-79
2021/11/05 11:04:13;;;;;;;9.47;6.60;;;9.30;99.90;;;;;;6144491;23;20213;-77
2021/11/05 11:06:39;;;;;;;9.40;6.23;;;9.30;99.90;;;;;;6144697;23;20140;-78
2021/11/05 11:09:08;;;;;;;11.77;6.87;;;9.40;99.90;;;;;;6144578;23;20176;-77
2021/11/05 11:11:45;;;;;;;9.30;6.03;;;9.40;99.90;;;;;;6143891;23;20189;-77
2021/11/05 11:14:17;;;;;;;9.07;6.97;;;9.40;99.90;;;;;;6144162;23;20194;-76
2021/11/05 11:16:49;;;;;;;10.03;6.80;;;9.50;99.90;;;;;;6144786;23;20612;-76
2021/11/05 11:19:16;;;;;;;9.03;6.17;;;9.50;99.90;;;;;;6145188;23;20191;-80
2021/11/05 11:21:51;;;;;;;9.43;6.23;;;9.30;99.90;;;;;;6146280;23;20215;-76
2021/11/05 11:24:28;;;;;;;8.50;6.20;;;9.30;99.90;;;;;;6146902;23;20143;-77
2021/11/05 11:26:54;;;;;;;8.07;5.60;;;9.30;99.90;;;;;;6147754;23;20146;-78
2021/11/05 11:29:23;;;;;;;10.23;6.53;;;9.40;99.90;;;;;;6120735;23;20188;-80
2021/11/05 11:31:51;;;;;;;9.07;5.57;;;9.40;99.90;;;;;;6145959;23;20160;-77
2021/11/05 11:34:17;;;;;;;10.10;6.00;;;9.30;99.90;;;;;;6119971;23;20167;-79
2021/11/05 11:36:49;;;;;;;10.10;5.70;;;9.30;99.90;;;;;;6146249;23;20162;-78
2021/11/05 11:39:18;;;;;;;9.00;5.60;;;9.30;99.90;;;;;;6121695;23;20187;-79
2021/11/05 11:41:44;;;;;;;7.30;5.33;;;9.20;99.90;;;;;;6119479;23;20186;-78
2021/11/05 11:44:14;;;;;;;9.43;5.00;;;9.20;99.90;;;;;;6119777;23;20167;-79
2021/11/05 11:46:52;;;;;;;8.03;5.23;;;9.20;99.90;;;;;;6119493;23;20235;-80
2021/11/05 11:49:39;;;;;;;7.23;5.27;;;9.30;99.90;;;;;;6119776;23;20185;-77
2021/11/05 11:52:14;;;;;;;7.70;4.93;;;9.40;99.90;;;;;;6146139;23;20239;-80
2021/11/05 11:54:40;;;;;;;9.80;5.47;;;9.40;99.90;;;;;;6120054;23;20185;-78
2021/11/05 11:57:26;;;;;;;7.53;5.33;;;9.60;99.90;;;;;;6120163;23;20166;-78
2021/11/05 12:00:03;;;;;;;8.53;5.23;;;9.60;99.90;;;;;;6146032;23;20195;-80
2021/11/05 12:02:36;;;;;;;9.37;6.17;;;9.60;99.90;;;;;;6120698;23;20156;-79
2021/11/05 12:05:31;;;;;;;10.67;5.93;;;9.60;99.90;;;;;;6149029;23;20208;-80
2021/11/05 12:08:38;;;;;;;8.53;5.40;;;9.70;99.90;;;;;;6108349;23;20179;-79
2021/11/05 12:11:07;;;;;;;8.20;4.73;;;9.60;99.90;;;;;;6149102;23;20162;-79
2021/11/05 12:13:32;;;;;;;8.87;5.23;;;9.70;99.90;;;;;;6123306;23;20168;-79
2021/11/05 12:16:13;;;;;;;8.67;5.47;;;9.60;99.90;;;;;;6119927;23;20168;-78
2021/11/05 12:18:57;;;;;;;9.47;4.73;;;9.70;99.90;;;;;;6145797;23;20199;-78
2021/11/05 12:21:36;;;;;;;8.00;4.93;;;9.80;99.90;;;;;;6145739;23;20159;-78
2021/11/05 12:24:17;;;;;;;7.27;4.60;;;9.80;99.90;;;;;;6142842;23;20139;-77
2021/11/05 12:26:53;;;;;;;7.97;5.03;;;9.90;99.90;;;;;;6120190;23;20155;-79
2021/11/05 12:29:48;;;;;;;7.17;4.97;;;9.80;99.90;;;;;;6145183;23;20198;-79
2021/11/05 12:32:13;;;;;;;7.87;5.00;;;9.70;99.90;;;;;;6144732;23;20194;-78
2021/11/05 12:34:45;;;;;;;8.93;5.23;;;9.60;99.90;;;;;;6145638;23;20172;-78
2021/11/05 12:37:12;;;;;;;7.67;4.70;;;9.60;99.90;;;;;;6119318;23;20159;-78
2021/11/05 12:39:41;;;;;;;9.53;4.53;;;9.50;99.90;;;;;;6118608;23;20283;-79
2021/11/05 12:42:15;;;;;;;7.20;4.80;;;9.60;99.90;;;;;;6145412;23;20155;-79